Time;durP1;ratioP1;P1;durP2;ratioP2;P2;SDS_P1;SDS_P2;PMS_P1;PMS_P2;Temp;Humidity;BMP_temperature;BMP_pressure;BME280_temperature;BME280_humidity;BME280_pressure;Samples;Min_cycle;Max_cycle;Signal;HPM_P1;HPM_P2
2022/07/21 00:01:08;;;;;;;10.60;6.63;;;19.10;99.90;;;;;;5042383;28;20040;-70
2022/07/21 00:03:34;;;;;;;14.05;6.47;;;19.10;99.90;;;;;;5040060;28;20195;-70
2022/07/21 00:05:59;;;;;;;13.45;6.70;;;19.10;99.90;;;;;;5037995;28;20069;-70
2022/07/21 00:08:25;;;;;;;13.90;7.38;;;19.10;99.90;;;;;;5027318;28;20056;-70
2022/07/21 00:10:52;;;;;;;9.95;6.50;;;19.20;99.90;;;;;;5044206;28;20485;-70
2022/07/21 00:13:18;;;;;;;12.32;6.78;;;19.20;99.90;;;;;;5040980;28;20052;-70
2022/07/21 00:15:44;;;;;;;12.02;6.93;;;19.10;99.90;;;;;;5044494;28;20037;-70
2022/07/21 00:18:09;;;;;;;8.52;6.15;;;19.10;99.90;;;;;;5030532;28;20041;-70
2022/07/21 00:20:35;;;;;;;14.73;7.10;;;19.10;99.90;;;;;;5032902;28;20407;-71
2022/07/21 00:23:01;;;;;;;14.52;6.82;;;19.10;99.90;;;;;;5032658;28;20045;-70
2022/07/21 00:25:26;;;;;;;14.73;7.57;;;19.10;99.90;;;;;;5041764;28;20073;-70
2022/07/21 00:27:52;;;;;;;14.13;6.90;;;19.10;99.90;;;;;;5019167;28;20067;-70
2022/07/21 00:30:18;;;;;;;12.55;7.13;;;19.10;99.90;;;;;;5030893;28;20099;-70
2022/07/21 00:32:44;;;;;;;13.32;7.18;;;19.10;99.90;;;;;;5029928;28;20050;-71
2022/07/21 00:35:11;;;;;;;11.77;7.25;;;19.10;99.90;;;;;;5032248;28;20506;-70
2022/07/21 00:37:37;;;;;;;11.82;8.00;;;19.10;99.90;;;;;;5017897;28;20053;-71
2022/07/21 00:40:05;;;;;;;14.60;8.35;;;19.10;99.90;;;;;;5036203;28;20044;-71
2022/07/21 00:42:32;;;;;;;12.25;7.90;;;19.20;99.90;;;;;;5034466;28;21051;-70
2022/07/21 00:44:58;;;;;;;13.48;8.27;;;19.20;99.90;;;;;;5035437;28;20053;-71
2022/07/21 00:47:26;;;;;;;14.77;8.23;;;19.20;99.90;;;;;;5020642;28;20045;-71
2022/07/21 00:49:52;;;;;;;17.98;8.75;;;19.20;99.90;;;;;;5038132;28;20103;-71
2022/07/21 00:52:18;;;;;;;14.98;9.38;;;19.20;99.90;;;;;;5034864;28;20059;-71
2022/07/21 00:54:44;;;;;;;13.07;9.32;;;19.20;99.90;;;;;;5036632;28;20049;-71
2022/07/21 00:57:11;;;;;;;17.38;9.93;;;19.20;99.90;;;;;;5022862;28;20041;-70
2022/07/21 00:59:37;;;;;;;18.02;10.65;;;19.10;99.90;;;;;;5034706;28;20065;-71
2022/07/21 01:02:03;;;;;;;18.23;10.55;;;19.10;99.90;;;;;;5023241;28;20065;-71
2022/07/21 01:04:29;;;;;;;17.92;10.85;;;19.10;99.90;;;;;;5037577;28;20053;-71
2022/07/21 01:06:56;;;;;;;16.42;10.70;;;19.10;99.90;;;;;;5019709;28;20052;-71
2022/07/21 01:09:22;;;;;;;17.73;11.18;;;19.10;99.90;;;;;;5038626;28;20064;-70
2022/07/21 01:11:48;;;;;;;21.42;11.98;;;19.10;99.90;;;;;;5040934;28;20047;-70
2022/07/21 01:14:14;;;;;;;19.60;12.90;;;19.00;99.90;;;;;;5036223;28;20080;-69
2022/07/21 01:16:40;;;;;;;17.25;11.70;;;18.90;99.90;;;;;;5024733;28;20042;-69
2022/07/21 01:19:07;;;;;;;16.40;12.05;;;18.90;99.90;;;;;;5035730;28;20048;-69
2022/07/21 01:21:38;;;;;;;22.38;13.57;;;18.90;99.90;;;;;;5038497;28;20068;-69
2022/07/21 01:24:05;;;;;;;19.73;13.45;;;18.80;99.90;;;;;;5037121;28;20135;-70
2022/07/21 01:26:39;;;;;;;23.65;14.45;;;18.70;99.90;;;;;;5027154;28;20532;-70
2022/07/21 01:29:04;;;;;;;23.48;14.75;;;18.60;99.90;;;;;;5036153;28;20044;-70
2022/07/21 01:31:30;;;;;;;21.27;14.60;;;18.60;99.90;;;;;;5040327;28;20045;-69
2022/07/21 01:33:56;;;;;;;20.55;13.48;;;18.50;99.90;;;;;;5040170;28;20098;-68
2022/07/21 01:36:21;;;;;;;20.30;13.38;;;18.50;99.90;;;;;;5029444;28;20050;-69
2022/07/21 01:41:32;;;;;;;20.50;14.65;;;18.60;99.90;;;;;;5039254;28;20048;-69
2022/07/21 01:44:04;;;;;;;24.63;15.18;;;18.60;99.90;;;;;;5039001;28;20569;-70
2022/07/21 01:46:33;;;;;;;24.08;15.05;;;18.40;99.90;;;;;;5029563;28;20506;-70
2022/07/21 01:48:58;;;;;;;23.50;14.93;;;18.40;99.90;;;;;;5042975;28;20395;-69
2022/07/21 01:51:25;;;;;;;25.27;15.93;;;18.50;99.90;;;;;;5042150;28;20053;-69
2022/07/21 01:53:52;;;;;;;22.83;15.30;;;18.50;99.90;;;;;;5033762;28;20038;-69
2022/07/21 01:56:22;;;;;;;25.10;16.05;;;18.40;99.90;;;;;;5029656;28;20053;-70
2022/07/21 01:58:49;;;;;;;24.27;14.40;;;18.40;99.90;;;;;;5038360;28;20045;-69
2022/07/21 02:01:19;;;;;;;23.02;16.02;;;18.30;99.90;;;;;;5044257;28;20125;-69
2022/07/21 02:03:45;;;;;;;24.75;15.85;;;18.40;99.90;;;;;;5040181;28;20045;-69
2022/07/21 02:06:12;;;;;;;24.77;15.88;;;18.40;99.90;;;;;;5033973;28;20053;-69
2022/07/21 02:08:38;;;;;;;24.08;15.20;;;18.30;99.90;;;;;;5035501;28;20132;-69
2022/07/21 02:11:05;;;;;;;26.45;15.52;;;18.40;99.90;;;;;;5046780;28;20121;-69
2022/07/21 02:13:31;;;;;;;25.45;14.90;;;18.40;99.90;;;;;;5044381;28;20072;-69
2022/07/21 02:15:57;;;;;;;24.10;14.55;;;18.30;99.90;;;;;;5040313;28;20069;-69
2022/07/21 02:18:23;;;;;;;21.55;13.77;;;18.30;99.90;;;;;;5029942;28;20073;-69
2022/07/21 02:20:50;;;;;;;19.95;13.15;;;18.40;99.90;;;;;;5039427;28;20049;-69
2022/07/21 02:23:16;;;;;;;20.35;13.75;;;18.40;99.90;;;;;;5034240;28;20061;-70
2022/07/21 02:25:43;;;;;;;14.98;11.52;;;18.40;99.90;;;;;;5040115;28;20084;-70
2022/07/21 02:28:09;;;;;;;20.05;13.10;;;18.40;99.90;;;;;;5027581;28;20049;-70
2022/07/21 02:30:35;;;;;;;24.45;14.30;;;18.50;99.90;;;;;;5033288;28;20045;-71
2022/07/21 02:33:01;;;;;;;29.48;15.70;;;18.50;99.90;;;;;;5034458;28;20045;-71
2022/07/21 02:35:26;;;;;;;34.88;17.20;;;18.40;99.90;;;;;;5030894;28;20060;-71
2022/07/21 02:37:52;;;;;;;37.50;18.73;;;18.40;99.90;;;;;;5018148;28;20084;-70
2022/07/21 02:40:18;;;;;;;30.30;18.20;;;18.30;99.90;;;;;;5038291;28;20091;-70
2022/07/21 02:42:44;;;;;;;33.58;18.77;;;18.30;99.90;;;;;;5033823;28;20049;-69
2022/07/21 02:45:10;;;;;;;29.35;18.70;;;18.20;99.90;;;;;;5033258;28;20030;-70
2022/07/21 02:47:52;;;;;;;36.60;20.45;;;18.20;99.90;;;;;;5015734;28;20038;-70
2022/07/21 02:50:20;;;;;;;40.67;20.60;;;18.20;99.90;;;;;;5038442;28;20049;-72
2022/07/21 02:52:46;;;;;;;40.15;21.38;;;18.20;99.90;;;;;;5035250;28;20523;-71
2022/07/21 02:55:12;;;;;;;33.40;20.38;;;18.20;99.90;;;;;;5034597;28;20501;-70
2022/07/21 02:57:38;;;;;;;42.90;23.17;;;18.10;99.90;;;;;;5021695;28;20075;-70
2022/07/21 03:00:05;;;;;;;42.70;23.27;;;18.10;99.90;;;;;;5035201;28;20527;-71
2022/07/21 03:02:31;;;;;;;41.38;24.33;;;18.10;99.90;;;;;;5039540;28;20483;-70
2022/07/21 03:04:57;;;;;;;43.92;24.08;;;18.10;99.90;;;;;;5034732;28;20083;-71
2022/07/21 03:07:23;;;;;;;52.38;25.92;;;18.10;99.90;;;;;;5019560;28;20120;-70
2022/07/21 03:09:48;;;;;;;56.80;27.38;;;18.10;99.90;;;;;;5040088;28;20064;-71
2022/07/21 03:12:14;;;;;;;50.30;26.77;;;18.10;99.90;;;;;;5034244;28;20060;-70
2022/07/21 03:14:40;;;;;;;36.60;23.88;;;18.10;99.90;;;;;;5036502;28;20063;-71
2022/07/21 03:17:05;;;;;;;43.40;25.27;;;18.10;99.90;;;;;;5020618;28;20050;-70
2022/07/21 03:19:31;;;;;;;36.55;22.77;;;18.20;99.90;;;;;;5038013;28;20047;-71
2022/07/21 03:21:57;;;;;;;24.30;19.70;;;18.20;99.90;;;;;;5038814;28;20036;-71
2022/07/21 03:24:22;;;;;;;36.40;22.60;;;18.20;99.90;;;;;;5034427;28;20084;-71
2022/07/21 03:26:48;;;;;;;38.53;23.75;;;18.20;99.90;;;;;;5021157;28;20049;-71
2022/07/21 03:29:13;;;;;;;50.50;26.92;;;18.20;99.90;;;;;;5030938;28;20042;-70
2022/07/21 03:31:39;;;;;;;42.63;25.48;;;18.20;99.90;;;;;;5035263;28;20059;-71
2022/07/21 03:34:05;;;;;;;36.17;23.88;;;18.20;99.90;;;;;;5038731;28;20480;-70
2022/07/21 03:36:31;;;;;;;35.53;23.05;;;18.30;99.90;;;;;;5027565;28;20574;-71
2022/07/21 03:38:56;;;;;;;34.17;22.65;;;18.20;99.90;;;;;;5032290;28;20041;-70
2022/07/21 03:41:22;;;;;;;40.97;24.77;;;18.30;99.90;;;;;;5037924;28;20053;-70
2022/07/21 03:43:48;;;;;;;37.40;24.85;;;18.30;99.90;;;;;;5038868;28;20052;-71
2022/07/21 03:46:13;;;;;;;39.17;23.95;;;18.30;99.90;;;;;;5029271;28;20042;-72
2022/07/21 03:48:39;;;;;;;32.25;22.25;;;18.30;99.90;;;;;;5035540;28;20048;-71
2022/07/21 03:51:05;;;;;;;40.85;23.90;;;18.30;99.90;;;;;;5038404;28;20053;-71
2022/07/21 03:53:31;;;;;;;36.70;24.45;;;18.30;99.90;;;;;;5038199;28;20052;-72
2022/07/21 03:55:57;;;;;;;30.15;21.65;;;18.30;99.90;;;;;;5040204;28;20131;-71
2022/07/21 03:58:22;;;;;;;35.80;22.92;;;18.30;99.90;;;;;;5028399;28;20050;-71
2022/07/21 04:00:48;;;;;;;35.70;24.30;;;18.30;99.90;;;;;;5037085;28;20053;-71
2022/07/21 04:03:14;;;;;;;39.80;25.08;;;18.30;99.90;;;;;;5039005;28;20068;-71
2022/07/21 04:05:41;;;;;;;40.75;25.48;;;18.30;99.90;;;;;;5040286;28;20034;-71
2022/07/21 04:08:08;;;;;;;38.35;25.95;;;18.30;99.90;;;;;;5025765;28;20135;-71
2022/07/21 04:10:36;;;;;;;33.90;25.08;;;18.30;99.90;;;;;;5042698;28;20427;-71
2022/07/21 04:13:04;;;;;;;46.63;26.88;;;18.40;99.90;;;;;;5034266;28;20054;-72
2022/07/21 04:15:31;;;;;;;55.60;27.92;;;18.40;99.90;;;;;;5039118;28;20041;-71
2022/07/21 04:17:56;;;;;;;41.15;26.55;;;18.40;99.90;;;;;;5002410;28;20044;-71
2022/07/21 04:20:22;;;;;;;39.65;25.42;;;18.40;99.90;;;;;;5042443;28;20389;-72
2022/07/21 04:22:49;;;;;;;40.30;26.50;;;18.30;99.90;;;;;;5039976;28;20193;-71
2022/07/21 04:25:16;;;;;;;52.92;28.88;;;18.30;99.90;;;;;;5043391;28;20143;-71
2022/07/21 04:27:42;;;;;;;39.83;26.20;;;18.30;99.90;;;;;;5029159;28;20135;-71
2022/07/21 04:30:14;;;;;;;49.20;29.80;;;18.40;99.90;;;;;;5038775;28;20060;-71
2022/07/21 04:32:40;;;;;;;42.83;27.70;;;18.30;99.90;;;;;;5035694;28;20030;-71
2022/07/21 04:35:07;;;;;;;53.00;30.52;;;18.40;99.90;;;;;;5034759;28;20080;-71
2022/07/21 04:37:33;;;;;;;46.53;28.73;;;18.40;99.90;;;;;;5020500;28;20064;-71
2022/07/21 04:39:59;;;;;;;50.92;29.83;;;18.30;99.90;;;;;;5037386;28;20045;-71
2022/07/21 04:42:25;;;;;;;56.38;31.88;;;18.30;99.90;;;;;;5039357;28;20504;-72
2022/07/21 04:44:50;;;;;;;56.50;32.10;;;18.30;99.90;;;;;;5035721;28;20053;-71
2022/07/21 04:47:16;;;;;;;57.20;31.83;;;18.30;99.90;;;;;;5022530;28;20046;-71
2022/07/21 04:49:42;;;;;;;52.38;31.92;;;18.40;99.90;;;;;;5035807;28;20050;-72
2022/07/21 04:52:08;;;;;;;57.67;31.95;;;18.40;99.90;;;;;;5034938;28;20042;-70
2022/07/21 04:54:33;;;;;;;57.15;33.22;;;18.30;99.90;;;;;;5036037;28;20049;-72
2022/07/21 04:57:02;;;;;;;57.13;32.95;;;18.40;99.90;;;;;;5020342;28;20479;-72
2022/07/21 04:59:29;;;;;;;58.67;33.58;;;18.40;99.90;;;;;;5034190;28;20061;-71
2022/07/21 05:01:55;;;;;;;53.85;33.63;;;18.40;99.90;;;;;;5039089;28;20051;-71
2022/07/21 05:04:20;;;;;;;53.95;34.13;;;18.40;99.90;;;;;;5040213;28;20044;-70
2022/07/21 05:06:46;;;;;;;59.38;36.10;;;18.40;99.90;;;;;;5024759;28;20044;-72
2022/07/21 05:09:12;;;;;;;61.08;36.47;;;18.50;99.90;;;;;;5034453;28;20057;-71
2022/07/21 05:11:37;;;;;;;71.90;37.20;;;18.50;99.90;;;;;;5039116;28;20037;-72
2022/07/21 05:14:04;;;;;;;70.68;39.05;;;18.50;99.90;;;;;;5037682;28;20105;-71
2022/07/21 05:16:30;;;;;;;87.60;41.47;;;18.60;99.90;;;;;;5029887;28;20045;-71
2022/07/21 05:18:55;;;;;;;60.65;39.13;;;18.70;99.90;;;;;;5035969;28;20588;-71
2022/07/21 05:21:21;;;;;;;73.95;40.97;;;18.70;99.90;;;;;;5041111;28;20034;-71
2022/07/21 05:23:46;;;;;;;57.58;39.40;;;18.70;99.90;;;;;;5036951;28;20064;-71
2022/07/21 05:26:12;;;;;;;51.88;36.55;;;18.70;99.90;;;;;;5031915;28;20491;-72
2022/07/21 05:28:39;;;;;;;47.58;33.65;;;18.70;99.90;;;;;;5029649;28;20519;-72
2022/07/21 05:31:05;;;;;;;43.65;32.92;;;18.60;99.90;;;;;;5039320;28;20057;-72
2022/07/21 05:33:30;;;;;;;44.85;32.80;;;18.60;99.90;;;;;;5037948;28;20052;-71
2022/07/21 05:35:56;;;;;;;40.38;30.80;;;18.60;99.90;;;;;;5033304;28;20504;-71
2022/07/21 05:38:22;;;;;;;44.22;31.70;;;18.60;99.90;;;;;;5022340;28;20041;-72
2022/07/21 05:40:47;;;;;;;44.45;31.88;;;18.60;99.90;;;;;;5041301;28;20517;-72
2022/07/21 05:43:13;;;;;;;46.85;32.63;;;18.50;99.90;;;;;;5038121;28;20037;-72
2022/07/21 05:45:39;;;;;;;41.60;30.50;;;18.50;99.90;;;;;;5020093;28;20048;-72
2022/07/21 05:48:05;;;;;;;37.60;29.55;;;18.40;99.90;;;;;;5022373;28;20300;-71
2022/07/21 05:50:31;;;;;;;41.63;29.92;;;18.40;99.90;;;;;;5045678;28;20052;-71
2022/07/21 05:52:56;;;;;;;39.45;29.60;;;18.40;99.90;;;;;;5042099;28;20489;-72
2022/07/21 05:55:22;;;;;;;34.70;27.92;;;18.30;99.90;;;;;;5042926;28;20104;-72
2022/07/21 05:57:48;;;;;;;32.53;27.25;;;18.30;99.90;;;;;;5020250;28;20187;-72
2022/07/21 06:00:15;;;;;;;33.92;28.13;;;18.30;99.90;;;;;;5036421;28;20044;-72
2022/07/21 06:02:41;;;;;;;37.55;28.73;;;18.30;99.90;;;;;;5033554;28;20045;-73
2022/07/21 06:05:08;;;;;;;39.88;29.42;;;18.40;99.90;;;;;;5021693;28;20053;-71
2022/07/21 06:07:34;;;;;;;49.92;32.33;;;18.40;99.90;;;;;;5020625;28;20040;-71
2022/07/21 06:10:00;;;;;;;34.75;28.10;;;18.40;99.90;;;;;;5040199;28;20045;-73
2022/07/21 06:12:27;;;;;;;32.25;26.52;;;18.40;99.90;;;;;;5036373;28;20099;-72
2022/07/21 06:14:52;;;;;;;31.55;26.23;;;18.40;99.90;;;;;;5036449;28;20037;-72
2022/07/21 06:17:18;;;;;;;35.90;27.05;;;18.40;99.90;;;;;;5019891;28;20494;-72
2022/07/21 06:19:44;;;;;;;36.35;27.75;;;18.30;99.90;;;;;;5030502;28;20083;-71
2022/07/21 06:22:09;;;;;;;34.75;28.17;;;18.30;99.90;;;;;;5030398;28;20518;-72
2022/07/21 06:24:35;;;;;;;35.72;28.38;;;18.40;99.90;;;;;;5037271;28;20094;-72
2022/07/21 06:27:01;;;;;;;36.50;27.67;;;18.40;99.90;;;;;;5017169;28;20183;-72
2022/07/21 06:29:27;;;;;;;41.65;29.92;;;18.30;99.90;;;;;;5036183;28;20092;-71
2022/07/21 06:31:52;;;;;;;44.13;30.67;;;18.30;99.90;;;;;;5035556;28;20903;-72
2022/07/21 06:34:18;;;;;;;32.60;26.88;;;18.30;99.90;;;;;;5035685;28;20055;-72
2022/07/21 06:36:44;;;;;;;40.80;30.05;;;18.30;99.90;;;;;;5013870;28;20056;-72
2022/07/21 06:39:12;;;;;;;42.85;31.98;;;18.40;99.90;;;;;;5035199;28;20072;-72
2022/07/21 06:41:38;;;;;;;38.28;29.17;;;18.40;99.90;;;;;;5033775;28;20046;-73
2022/07/21 06:44:05;;;;;;;43.03;31.70;;;18.40;99.90;;;;;;5033963;28;20140;-72
2022/07/21 06:46:34;;;;;;;44.63;33.17;;;18.40;99.90;;;;;;5017843;28;20116;-73
2022/07/21 06:49:01;;;;;;;40.42;31.45;;;18.40;99.90;;;;;;5031522;28;20098;-72
2022/07/21 06:51:27;;;;;;;49.05;35.03;;;18.40;99.90;;;;;;5034324;28;20132;-72
2022/07/21 06:53:53;;;;;;;47.67;33.40;;;18.40;99.90;;;;;;5031851;28;20139;-72
2022/07/21 06:56:19;;;;;;;57.65;34.50;;;18.40;99.90;;;;;;5024290;28;20077;-72
2022/07/21 06:58:45;;;;;;;44.35;32.22;;;18.40;99.90;;;;;;5029366;28;20045;-71
2022/07/21 07:01:13;;;;;;;49.05;33.63;;;18.40;99.90;;;;;;5032562;28;20038;-72
2022/07/21 07:03:39;;;;;;;39.80;30.45;;;18.40;99.90;;;;;;5037203;28;20116;-72
2022/07/21 07:06:05;;;;;;;42.40;31.65;;;18.40;99.90;;;;;;5018048;28;20049;-72
2022/07/21 07:08:32;;;;;;;44.15;32.97;;;18.50;99.90;;;;;;5012297;28;20120;-72
2022/07/21 07:10:58;;;;;;;44.35;32.08;;;18.50;99.90;;;;;;5034713;28;20068;-72
2022/07/21 07:13:23;;;;;;;42.20;32.35;;;18.50;99.90;;;;;;5038789;28;20092;-72
2022/07/21 07:15:49;;;;;;;41.65;33.20;;;18.50;99.90;;;;;;5035244;28;20045;-72
2022/07/21 07:18:15;;;;;;;40.28;31.45;;;18.50;99.90;;;;;;5022675;28;20045;-72
2022/07/21 07:20:41;;;;;;;42.17;33.13;;;18.50;99.90;;;;;;5037671;28;20083;-72
2022/07/21 07:23:06;;;;;;;43.67;33.53;;;18.60;99.90;;;;;;5035483;28;20049;-71
2022/07/21 07:25:32;;;;;;;41.45;33.92;;;18.60;99.90;;;;;;5032933;28;20048;-72
2022/07/21 07:28:00;;;;;;;48.83;35.45;;;18.70;99.90;;;;;;5017864;28;20055;-73
2022/07/21 07:30:26;;;;;;;45.78;34.88;;;18.70;99.90;;;;;;5033690;28;20049;-72
2022/07/21 07:32:51;;;;;;;41.10;32.28;;;18.80;99.90;;;;;;5020010;28;20056;-72
2022/07/21 07:35:17;;;;;;;45.03;37.28;;;18.90;99.90;;;;;;5035585;28;20504;-72
2022/07/21 07:37:45;;;;;;;44.35;35.67;;;19.00;99.90;;;;;;5023542;28;20053;-72
2022/07/21 07:40:14;;;;;;;42.60;35.80;;;19.00;99.90;;;;;;5036793;28;20524;-71
2022/07/21 07:42:40;;;;;;;43.70;35.08;;;19.00;99.90;;;;;;5039690;28;20033;-71
2022/07/21 07:45:08;;;;;;;43.85;34.50;;;19.00;99.90;;;;;;5035487;28;20057;-70
2022/07/21 07:47:34;;;;;;;44.22;34.95;;;19.00;99.90;;;;;;5018273;28;20045;-71
2022/07/21 07:50:00;;;;;;;42.55;35.38;;;19.10;99.90;;;;;;5042634;28;20423;-72
2022/07/21 07:52:28;;;;;;;39.85;32.92;;;19.20;99.90;;;;;;5039080;28;20542;-71
2022/07/21 07:54:53;;;;;;;39.80;31.95;;;19.20;99.90;;;;;;5040211;28;20084;-71
2022/07/21 07:57:19;;;;;;;37.38;31.55;;;19.20;99.90;;;;;;5024085;28;20084;-72
2022/07/21 07:59:45;;;;;;;36.38;31.63;;;19.20;99.90;;;;;;5056443;28;20041;-72
2022/07/21 08:02:10;;;;;;;36.72;32.15;;;19.20;99.90;;;;;;5043574;28;20045;-72
2022/07/21 08:04:36;;;;;;;33.28;29.20;;;19.20;99.90;;;;;;5045646;28;20091;-71
2022/07/21 08:07:03;;;;;;;35.47;30.35;;;19.20;99.90;;;;;;5028147;28;20048;-72
2022/07/21 08:09:29;;;;;;;34.40;29.45;;;19.20;99.90;;;;;;5045169;28;20088;-71
2022/07/21 08:11:54;;;;;;;34.65;30.95;;;19.20;99.90;;;;;;5043780;28;20465;-71
2022/07/21 08:14:20;;;;;;;37.30;31.70;;;19.30;99.90;;;;;;5040957;28;20182;-72
2022/07/21 08:16:46;;;;;;;36.10;31.23;;;19.30;99.90;;;;;;5026299;28;20111;-72
2022/07/21 08:19:12;;;;;;;34.92;30.60;;;19.30;99.90;;;;;;5035144;28;20102;-73
2022/07/21 08:21:38;;;;;;;36.88;31.13;;;19.20;99.90;;;;;;5037761;28;20045;-73
2022/07/21 08:24:04;;;;;;;36.30;30.58;;;19.20;99.90;;;;;;5031643;28;20042;-73
2022/07/21 08:26:30;;;;;;;37.10;30.92;;;19.20;99.90;;;;;;5016384;28;20074;-73
2022/07/21 08:28:57;;;;;;;33.05;29.50;;;19.20;99.90;;;;;;5026140;28;20053;-70
2022/07/21 08:31:24;;;;;;;37.65;32.08;;;19.20;99.90;;;;;;5033701;28;20522;-74
2022/07/21 08:33:51;;;;;;;35.38;31.10;;;19.30;99.90;;;;;;5030672;28;20132;-72
2022/07/21 08:36:17;;;;;;;37.75;33.05;;;19.30;99.90;;;;;;5022296;28;20049;-72
2022/07/21 08:38:43;;;;;;;36.13;32.00;;;19.30;99.90;;;;;;5023513;28;20052;-71
2022/07/21 08:41:08;;;;;;;37.55;31.77;;;19.40;99.90;;;;;;5035021;28;20611;-71
2022/07/21 08:43:35;;;;;;;37.33;32.60;;;19.40;99.90;;;;;;5032493;28;20037;-71
2022/07/21 08:46:01;;;;;;;43.45;34.00;;;19.40;99.90;;;;;;5032070;28;20053;-71
2022/07/21 08:48:27;;;;;;;39.30;33.63;;;19.40;99.90;;;;;;4999050;28;20046;-71
2022/07/21 08:50:53;;;;;;;40.65;33.70;;;19.40;99.90;;;;;;5033708;28;20056;-71
2022/07/21 08:53:19;;;;;;;40.17;33.22;;;19.50;99.90;;;;;;5032862;28;20519;-73
2022/07/21 08:55:45;;;;;;;40.65;32.80;;;19.40;99.90;;;;;;5029893;28;20048;-72
2022/07/21 08:58:13;;;;;;;38.13;31.80;;;19.40;99.90;;;;;;5020568;28;20051;-72
2022/07/21 09:00:42;;;;;;;41.35;32.17;;;19.40;99.90;;;;;;5030995;28;20455;-72
2022/07/21 09:03:20;;;;;;;41.20;34.00;;;19.50;99.90;;;;;;5026226;28;20045;-72
2022/07/21 09:06:01;;;;;;;43.17;35.17;;;19.50;99.90;;;;;;5043204;28;20574;-71
2022/07/21 09:08:31;;;;;;;45.15;36.50;;;19.50;99.90;;;;;;5016897;28;20473;-72
2022/07/21 09:11:16;;;;;;;41.13;34.90;;;19.50;99.90;;;;;;5040557;28;20049;-73
2022/07/21 09:13:43;;;;;;;49.10;39.00;;;19.70;99.90;;;;;;5042304;28;20415;-71
2022/07/21 09:16:10;;;;;;;49.78;38.05;;;19.60;99.90;;;;;;5037660;28;20413;-73
2022/07/21 09:18:51;;;;;;;52.50;40.25;;;19.60;99.90;;;;;;5023741;28;20057;-72
2022/07/21 09:21:18;;;;;;;51.58;40.03;;;19.70;99.90;;;;;;5032110;28;20057;-72
2022/07/21 09:23:44;;;;;;;50.50;39.20;;;19.70;99.90;;;;;;5020056;28;20088;-71
2022/07/21 09:26:10;;;;;;;48.97;39.63;;;19.60;99.90;;;;;;5024742;28;20045;-74
2022/07/21 09:28:36;;;;;;;53.05;40.95;;;19.60;99.90;;;;;;5027797;28;20041;-74
2022/07/21 09:31:06;;;;;;;52.33;41.40;;;19.50;99.90;;;;;;5045741;28;20056;-74
2022/07/21 09:33:41;;;;;;;49.28;40.85;;;19.50;99.90;;;;;;5039600;28;20408;-72
2022/07/21 09:36:08;;;;;;;50.78;41.65;;;19.50;99.90;;;;;;5055775;28;20069;-73
2022/07/21 09:38:41;;;;;;;53.45;42.05;;;19.50;99.90;;;;;;5030918;28;20049;-73
2022/07/21 09:41:22;;;;;;;58.15;43.80;;;19.40;99.90;;;;;;5051084;28;20048;-73
2022/07/21 09:43:51;;;;;;;55.17;43.33;;;19.40;99.90;;;;;;5044562;28;20051;-72
2022/07/21 09:46:31;;;;;;;53.83;42.85;;;19.40;99.90;;;;;;5011294;28;20522;-73
2022/07/21 09:49:00;;;;;;;52.10;42.22;;;19.50;99.90;;;;;;5043061;28;20049;-73
2022/07/21 09:51:41;;;;;;;51.85;41.53;;;19.50;99.90;;;;;;5044657;28;20045;-72
2022/07/21 09:54:09;;;;;;;52.25;42.30;;;19.50;99.90;;;;;;5031274;28;20077;-72
2022/07/21 09:56:38;;;;;;;54.97;42.85;;;19.60;99.90;;;;;;5017674;28;20120;-73
2022/07/21 09:59:06;;;;;;;55.45;42.75;;;19.70;99.90;;;;;;5041350;28;20140;-72
2022/07/21 10:01:32;;;;;;;52.17;43.35;;;19.60;99.90;;;;;;5032288;28;20044;-72
2022/07/21 10:03:59;;;;;;;59.33;45.03;;;19.70;99.90;;;;;;5029798;28;20412;-72
2022/07/21 10:06:35;;;;;;;60.22;47.67;;;19.60;99.90;;;;;;5029859;28;21801;-72
2022/07/21 10:09:03;;;;;;;56.42;45.92;;;19.60;99.90;;;;;;5042178;28;20049;-72
2022/07/21 10:11:29;;;;;;;58.38;45.88;;;19.60;99.90;;;;;;5029829;28;20049;-72
2022/07/21 10:13:55;;;;;;;55.22;45.15;;;19.60;99.90;;;;;;5035310;28;20412;-72
2022/07/21 10:16:21;;;;;;;53.88;43.92;;;19.50;99.90;;;;;;5030877;28;20060;-72
2022/07/21 10:19:05;;;;;;;56.25;44.45;;;19.40;99.90;;;;;;5027402;28;20056;-72
2022/07/21 10:21:52;;;;;;;55.80;45.60;;;19.40;99.90;;;;;;5034071;28;20111;-72
2022/07/21 10:24:19;;;;;;;56.83;47.10;;;19.30;99.90;;;;;;5042199;28;20488;-72
2022/07/21 10:27:07;;;;;;;58.92;47.08;;;19.40;99.90;;;;;;5034472;28;20056;-72
2022/07/21 10:29:52;;;;;;;67.45;49.47;;;19.30;99.90;;;;;;5034767;28;20554;-71
2022/07/21 10:32:21;;;;;;;57.22;45.75;;;19.30;99.90;;;;;;5030363;28;20103;-72
2022/07/21 10:34:48;;;;;;;62.78;48.78;;;19.30;99.90;;;;;;5041775;28;20083;-72
2022/07/21 10:37:39;;;;;;;61.88;48.67;;;19.30;99.90;;;;;;5002612;28;20499;-72
2022/07/21 10:40:06;;;;;;;61.33;48.35;;;19.30;99.90;;;;;;5037375;28;20045;-73
2022/07/21 10:42:32;;;;;;;62.40;47.72;;;19.30;99.90;;;;;;5042578;28;20033;-73
2022/07/21 10:44:58;;;;;;;64.03;48.80;;;19.20;99.90;;;;;;5032991;28;20519;-73
2022/07/21 10:47:30;;;;;;;59.05;47.95;;;19.20;99.90;;;;;;5013553;28;20049;-73
2022/07/21 10:50:07;;;;;;;63.65;49.72;;;19.20;99.90;;;;;;5030034;28;20120;-73
2022/07/21 10:52:38;;;;;;;63.72;48.45;;;19.20;99.90;;;;;;5032738;28;20044;-73
2022/07/21 10:55:09;;;;;;;65.88;49.08;;;19.30;99.90;;;;;;5051327;28;20130;-73
2022/07/21 10:57:39;;;;;;;65.90;48.70;;;19.30;99.90;;;;;;5016254;28;20053;-72
2022/07/21 11:00:30;;;;;;;58.00;45.55;;;19.20;99.90;;;;;;5035953;28;20055;-73
2022/07/21 11:02:58;;;;;;;57.83;46.13;;;19.30;99.90;;;;;;5050032;28;20033;-73
2022/07/21 11:05:27;;;;;;;58.17;45.65;;;19.30;99.90;;;;;;5050673;28;20052;-72
2022/07/21 11:08:13;;;;;;;54.20;42.63;;;19.30;99.90;;;;;;5033066;28;20609;-73
2022/07/21 11:10:45;;;;;;;54.25;42.50;;;19.30;99.90;;;;;;5044256;28;20056;-71
2022/07/21 11:13:12;;;;;;;48.63;39.25;;;19.30;99.90;;;;;;5028498;28;20065;-72
2022/07/21 11:15:47;;;;;;;44.25;36.78;;;19.40;99.90;;;;;;5037912;28;20045;-72
2022/07/21 11:18:18;;;;;;;42.58;35.22;;;19.50;99.90;;;;;;5025978;28;20060;-71
2022/07/21 11:21:00;;;;;;;46.17;35.80;;;19.50;99.90;;;;;;5012821;28;20095;-71
2022/07/21 11:23:40;;;;;;;42.83;35.40;;;19.60;99.90;;;;;;5044151;28;20109;-71
2022/07/21 11:26:06;;;;;;;47.08;36.83;;;19.70;99.90;;;;;;5028733;28;20566;-73
2022/07/21 11:28:32;;;;;;;42.55;35.25;;;19.90;99.90;;;;;;5025272;28;20053;-71
2022/07/21 11:31:13;;;;;;;40.75;34.95;;;20.00;99.90;;;;;;5034655;28;20057;-71
2022/07/21 11:33:41;;;;;;;44.10;35.60;;;20.10;99.90;;;;;;5028479;28;20081;-71
2022/07/21 11:36:07;;;;;;;41.28;35.10;;;20.10;99.90;;;;;;5042907;28;20052;-73
2022/07/21 11:38:34;;;;;;;43.53;34.47;;;20.10;99.90;;;;;;5039089;28;20060;-72
2022/07/21 11:41:15;;;;;;;40.03;34.90;;;20.10;99.90;;;;;;5050254;28;20044;-72
2022/07/21 11:43:45;;;;;;;34.67;28.95;;;20.10;99.90;;;;;;5037423;28;20103;-73
2022/07/21 11:46:12;;;;;;;31.25;27.95;;;20.00;99.90;;;;;;5024866;28;20045;-72
2022/07/21 11:48:38;;;;;;;33.40;29.13;;;20.00;99.90;;;;;;5029147;28;20049;-73
2022/07/21 11:51:06;;;;;;;35.38;29.67;;;20.10;99.90;;;;;;5043311;28;20052;-73
2022/07/21 11:53:32;;;;;;;28.65;25.70;;;20.10;99.90;;;;;;5040346;28;20046;-72
2022/07/21 11:55:58;;;;;;;30.20;25.95;;;20.10;99.90;;;;;;5030539;28;20103;-72
2022/07/21 11:58:24;;;;;;;27.65;23.67;;;20.20;99.90;;;;;;5013967;28;20124;-72
2022/07/21 12:01:05;;;;;;;24.05;21.52;;;20.20;99.90;;;;;;5029602;28;20049;-71
2022/07/21 12:03:31;;;;;;;22.42;20.00;;;20.30;99.90;;;;;;5028091;28;20049;-71
2022/07/21 12:05:57;;;;;;;22.02;19.77;;;20.30;99.90;;;;;;5028399;28;20053;-71
2022/07/21 12:08:23;;;;;;;22.52;20.05;;;20.30;99.90;;;;;;5026607;28;20543;-71
2022/07/21 12:10:49;;;;;;;22.10;17.98;;;20.30;99.90;;;;;;5049666;28;20041;-71
2022/07/21 12:13:14;;;;;;;21.17;18.67;;;20.30;99.90;;;;;;5064560;28;20106;-72
2022/07/21 12:15:41;;;;;;;22.77;18.63;;;20.40;99.90;;;;;;5046389;28;20420;-72
2022/07/21 12:18:23;;;;;;;19.70;17.50;;;20.30;99.90;;;;;;5011722;28;20520;-71
2022/07/21 12:20:59;;;;;;;19.05;17.00;;;20.30;99.90;;;;;;5030519;28;20061;-72
2022/07/21 12:23:30;;;;;;;19.58;17.48;;;20.30;99.90;;;;;;5031000;28;20041;-73
2022/07/21 12:25:58;;;;;;;17.27;12.80;;;20.30;99.90;;;;;;5048496;28;20052;-72
2022/07/21 12:28:47;;;;;;;10.68;9.35;;;20.10;99.90;;;;;;5012497;28;20045;-72
2022/07/21 12:31:21;;;;;;;12.52;9.07;;;20.20;99.90;;;;;;5045826;28;20049;-73
2022/07/21 12:33:49;;;;;;;10.00;6.97;;;20.30;99.90;;;;;;5047798;28;20045;-71